Aviation Digital Data Service (ADDS)

Output produced by METARs form (1911 UTC 25 June 2017)
found at http://www.aviationweather.gov/adds/metars/
 
LBBG 251900Z 09009KT CAVOK 22/19 Q1015 NOSIG
TAF LBBG 251700Z 2518/2618 11012KT CAVOK 
     BECMG 2519/2521 VRB04KT 
     BECMG 2608/2610 11014KT
       
LBGO 251900Z AUTO 09006KT 9999 NCD 23/23 Q1013
TAF LBGO 251700Z 2518/2618 16012KT CAVOK 
     BECMG 2604/2606 VRB04KT
       
LBPD 251900Z AUTO 15009KT 9999 NCD 27/19 Q1012 NOSIG
TAF LBPD 251700Z 2518/2618 VRB04KT CAVOK 
     BECMG 2610/2612 09010KT
       
LBSF 251900Z 09009KT CAVOK 24/15 Q1014 NOSIG
TAF LBSF 251700Z 2518/2618 06008KT CAVOK 
     BECMG 2602/2604 VRB04KT 
     PROB40 
     TEMPO 2614/2618 28010KT TSRA SCT040CB
       
LBWN 251900Z 12004KT CAVOK 22/19 Q1015 NOSIG
TAF LBWN 251700Z 2518/2618 11010KT CAVOK 
     BECMG 2519/2521 VRB04KT 
     BECMG 2601/2603 5000 BR 
     PROB30 
     TEMPO 2603/2605 1200 BR BKN004 
     BECMG 2607/2609 11012KT 9999 SCT030